sensor_id;sensor_type;location;lat;lon;timestamp;P1;durP1;ratioP1;P2;durP2;ratioP2
11568;SDS011;5840;46.894;15.542;2024-01-15T00:00:59;57.57;;;38.80;;
11568;SDS011;5840;46.894;15.542;2024-01-15T00:03:25;61.67;;;41.13;;
11568;SDS011;5840;46.894;15.542;2024-01-15T00:05:52;66.23;;;41.17;;
11568;SDS011;5840;46.894;15.542;2024-01-15T00:08:18;67.83;;;41.57;;
11568;SDS011;5840;46.894;15.542;2024-01-15T00:10:44;66.27;;;41.07;;
11568;SDS011;5840;46.894;15.542;2024-01-15T00:13:10;58.07;;;41.10;;
11568;SDS011;5840;46.894;15.542;2024-01-15T00:15:37;61.03;;;42.37;;
11568;SDS011;5840;46.894;15.542;2024-01-15T00:25:32;61.10;;;40.07;;
11568;SDS011;5840;46.894;15.542;2024-01-15T00:27:58;62.37;;;41.90;;
11568;SDS011;5840;46.894;15.542;2024-01-15T00:30:25;62.10;;;41.67;;
11568;SDS011;5840;46.894;15.542;2024-01-15T00:32:51;61.93;;;40.80;;
11568;SDS011;5840;46.894;15.542;2024-01-15T00:35:18;72.17;;;43.23;;
11568;SDS011;5840;46.894;15.542;2024-01-15T00:37:44;61.60;;;40.80;;
11568;SDS011;5840;46.894;15.542;2024-01-15T00:40:10;60.23;;;40.93;;
11568;SDS011;5840;46.894;15.542;2024-01-15T00:42:37;64.97;;;41.97;;
11568;SDS011;5840;46.894;15.542;2024-01-15T00:50:07;61.67;;;40.50;;
11568;SDS011;5840;46.894;15.542;2024-01-15T00:52:33;61.17;;;41.33;;
11568;SDS011;5840;46.894;15.542;2024-01-15T00:55:00;58.33;;;40.40;;
11568;SDS011;5840;46.894;15.542;2024-01-15T00:57:26;59.47;;;40.27;;
11568;SDS011;5840;46.894;15.542;2024-01-15T00:59:52;62.50;;;40.57;;
11568;SDS011;5840;46.894;15.542;2024-01-15T01:02:18;63.70;;;39.83;;
11568;SDS011;5840;46.894;15.542;2024-01-15T01:04:44;56.87;;;39.33;;
11568;SDS011;5840;46.894;15.542;2024-01-15T01:07:11;56.80;;;39.10;;
11568;SDS011;5840;46.894;15.542;2024-01-15T01:17:06;56.70;;;39.50;;
11568;SDS011;5840;46.894;15.542;2024-01-15T01:19:32;57.97;;;41.50;;
11568;SDS011;5840;46.894;15.542;2024-01-15T01:21:59;58.00;;;38.33;;
11568;SDS011;5840;46.894;15.542;2024-01-15T01:24:25;59.57;;;39.80;;
11568;SDS011;5840;46.894;15.542;2024-01-15T01:26:51;54.97;;;38.33;;
11568;SDS011;5840;46.894;15.542;2024-01-15T01:29:17;51.40;;;37.73;;
11568;SDS011;5840;46.894;15.542;2024-01-15T01:31:43;58.00;;;39.00;;
11568;SDS011;5840;46.894;15.542;2024-01-15T01:34:10;59.43;;;39.13;;
11568;SDS011;5840;46.894;15.542;2024-01-15T01:44:03;59.83;;;40.07;;
11568;SDS011;5840;46.894;15.542;2024-01-15T01:46:29;59.60;;;38.60;;
11568;SDS011;5840;46.894;15.542;2024-01-15T01:48:56;61.17;;;41.00;;
11568;SDS011;5840;46.894;15.542;2024-01-15T01:51:26;58.67;;;40.00;;
11568;SDS011;5840;46.894;15.542;2024-01-15T01:53:53;57.13;;;40.37;;
11568;SDS011;5840;46.894;15.542;2024-01-15T01:56:19;58.97;;;40.90;;
11568;SDS011;5840;46.894;15.542;2024-01-15T01:58:45;59.37;;;41.10;;
11568;SDS011;5840;46.894;15.542;2024-01-15T02:01:14;58.47;;;40.90;;
11568;SDS011;5840;46.894;15.542;2024-01-15T02:08:45;55.13;;;39.23;;
11568;SDS011;5840;46.894;15.542;2024-01-15T02:11:11;56.63;;;38.97;;
11568;SDS011;5840;46.894;15.542;2024-01-15T02:13:38;59.23;;;39.53;;
11568;SDS011;5840;46.894;15.542;2024-01-15T02:16:05;60.30;;;42.07;;
11568;SDS011;5840;46.894;15.542;2024-01-15T02:18:38;60.40;;;41.07;;
11568;SDS011;5840;46.894;15.542;2024-01-15T02:21:06;59.97;;;40.83;;
11568;SDS011;5840;46.894;15.542;2024-01-15T02:23:33;75.53;;;43.70;;
11568;SDS011;5840;46.894;15.542;2024-01-15T02:25:59;76.77;;;46.50;;
11568;SDS011;5840;46.894;15.542;2024-01-15T02:33:29;68.57;;;44.37;;
11568;SDS011;5840;46.894;15.542;2024-01-15T02:35:55;66.97;;;42.97;;
11568;SDS011;5840;46.894;15.542;2024-01-15T02:38:21;69.67;;;44.10;;
11568;SDS011;5840;46.894;15.542;2024-01-15T02:40:49;62.10;;;44.20;;
11568;SDS011;5840;46.894;15.542;2024-01-15T02:43:15;66.07;;;44.23;;
11568;SDS011;5840;46.894;15.542;2024-01-15T02:45:44;64.27;;;44.63;;
11568;SDS011;5840;46.894;15.542;2024-01-15T02:48:10;64.97;;;44.77;;
11568;SDS011;5840;46.894;15.542;2024-01-15T02:50:37;62.33;;;42.70;;
11568;SDS011;5840;46.894;15.542;2024-01-15T03:00:32;59.80;;;40.77;;
11568;SDS011;5840;46.894;15.542;2024-01-15T03:02:58;58.80;;;41.47;;
11568;SDS011;5840;46.894;15.542;2024-01-15T03:05:24;58.67;;;40.03;;
11568;SDS011;5840;46.894;15.542;2024-01-15T03:07:50;57.23;;;39.53;;
11568;SDS011;5840;46.894;15.542;2024-01-15T03:10:16;59.10;;;40.80;;
11568;SDS011;5840;46.894;15.542;2024-01-15T03:12:43;54.13;;;38.83;;
11568;SDS011;5840;46.894;15.542;2024-01-15T03:15:09;52.17;;;38.00;;
11568;SDS011;5840;46.894;15.542;2024-01-15T03:17:36;56.50;;;38.77;;
11568;SDS011;5840;46.894;15.542;2024-01-15T03:27:31;60.17;;;39.20;;
11568;SDS011;5840;46.894;15.542;2024-01-15T03:29:58;53.83;;;38.27;;
11568;SDS011;5840;46.894;15.542;2024-01-15T03:32:24;57.17;;;40.10;;
11568;SDS011;5840;46.894;15.542;2024-01-15T03:34:50;55.57;;;40.73;;
11568;SDS011;5840;46.894;15.542;2024-01-15T03:37:17;56.07;;;38.37;;
11568;SDS011;5840;46.894;15.542;2024-01-15T03:39:44;58.17;;;39.90;;
11568;SDS011;5840;46.894;15.542;2024-01-15T03:42:10;56.37;;;39.20;;
11568;SDS011;5840;46.894;15.542;2024-01-15T03:44:37;58.47;;;40.60;;
11568;SDS011;5840;46.894;15.542;2024-01-15T03:52:07;58.23;;;40.57;;
11568;SDS011;5840;46.894;15.542;2024-01-15T03:54:33;57.63;;;40.90;;
11568;SDS011;5840;46.894;15.542;2024-01-15T03:57:00;57.00;;;40.27;;
11568;SDS011;5840;46.894;15.542;2024-01-15T03:59:26;55.00;;;39.00;;
11568;SDS011;5840;46.894;15.542;2024-01-15T04:01:52;56.23;;;38.40;;
11568;SDS011;5840;46.894;15.542;2024-01-15T04:04:18;54.80;;;38.73;;
11568;SDS011;5840;46.894;15.542;2024-01-15T04:06:44;53.83;;;38.63;;
11568;SDS011;5840;46.894;15.542;2024-01-15T04:09:12;54.70;;;38.47;;
11568;SDS011;5840;46.894;15.542;2024-01-15T04:19:07;49.77;;;36.27;;
11568;SDS011;5840;46.894;15.542;2024-01-15T04:21:33;55.50;;;38.40;;
11568;SDS011;5840;46.894;15.542;2024-01-15T04:23:59;49.03;;;36.17;;
11568;SDS011;5840;46.894;15.542;2024-01-15T04:26:26;53.97;;;37.23;;
11568;SDS011;5840;46.894;15.542;2024-01-15T04:28:52;53.17;;;36.70;;
11568;SDS011;5840;46.894;15.542;2024-01-15T04:31:21;55.13;;;38.73;;
11568;SDS011;5840;46.894;15.542;2024-01-15T04:33:48;48.90;;;36.97;;
11568;SDS011;5840;46.894;15.542;2024-01-15T04:36:15;54.73;;;37.97;;
11568;SDS011;5840;46.894;15.542;2024-01-15T04:43:44;53.23;;;37.87;;
11568;SDS011;5840;46.894;15.542;2024-01-15T04:46:11;50.57;;;36.07;;
11568;SDS011;5840;46.894;15.542;2024-01-15T04:48:37;52.33;;;37.30;;
11568;SDS011;5840;46.894;15.542;2024-01-15T04:51:04;51.57;;;38.30;;
11568;SDS011;5840;46.894;15.542;2024-01-15T04:53:30;51.33;;;37.13;;
11568;SDS011;5840;46.894;15.542;2024-01-15T04:55:57;55.10;;;37.67;;
11568;SDS011;5840;46.894;15.542;2024-01-15T04:58:23;50.47;;;35.47;;
11568;SDS011;5840;46.894;15.542;2024-01-15T05:00:52;50.20;;;35.37;;
11568;SDS011;5840;46.894;15.542;2024-01-15T05:10:47;52.57;;;38.10;;
11568;SDS011;5840;46.894;15.542;2024-01-15T05:13:14;54.77;;;37.70;;
11568;SDS011;5840;46.894;15.542;2024-01-15T05:15:40;54.03;;;38.53;;
11568;SDS011;5840;46.894;15.542;2024-01-15T05:18:06;48.33;;;35.87;;
11568;SDS011;5840;46.894;15.542;2024-01-15T05:20:32;54.83;;;39.63;;
11568;SDS011;5840;46.894;15.542;2024-01-15T05:22:59;49.80;;;37.17;;
11568;SDS011;5840;46.894;15.542;2024-01-15T05:25:25;52.60;;;37.20;;
11568;SDS011;5840;46.894;15.542;2024-01-15T05:27:52;53.10;;;37.40;;
11568;SDS011;5840;46.894;15.542;2024-01-15T05:37:47;48.53;;;35.67;;
11568;SDS011;5840;46.894;15.542;2024-01-15T05:40:13;48.30;;;34.93;;
11568;SDS011;5840;46.894;15.542;2024-01-15T05:42:40;46.53;;;35.33;;
11568;SDS011;5840;46.894;15.542;2024-01-15T05:45:07;49.47;;;34.70;;
11568;SDS011;5840;46.894;15.542;2024-01-15T05:47:34;48.60;;;35.27;;
11568;SDS011;5840;46.894;15.542;2024-01-15T05:50:00;49.83;;;35.63;;
11568;SDS011;5840;46.894;15.542;2024-01-15T05:52:27;44.83;;;34.30;;
11568;SDS011;5840;46.894;15.542;2024-01-15T05:54:54;47.13;;;35.27;;
11568;SDS011;5840;46.894;15.542;2024-01-15T06:04:36;46.33;;;35.80;;
11568;SDS011;5840;46.894;15.542;2024-01-15T06:07:02;46.93;;;34.67;;
11568;SDS011;5840;46.894;15.542;2024-01-15T06:09:29;50.10;;;35.57;;
11568;SDS011;5840;46.894;15.542;2024-01-15T06:11:56;47.93;;;35.20;;
11568;SDS011;5840;46.894;15.542;2024-01-15T06:14:22;49.67;;;35.37;;
11568;SDS011;5840;46.894;15.542;2024-01-15T06:16:49;48.10;;;35.53;;
11568;SDS011;5840;46.894;15.542;2024-01-15T06:19:15;48.83;;;35.00;;
11568;SDS011;5840;46.894;15.542;2024-01-15T06:21:42;51.97;;;36.23;;
11568;SDS011;5840;46.894;15.542;2024-01-15T06:29:11;45.53;;;32.83;;
11568;SDS011;5840;46.894;15.542;2024-01-15T06:31:38;45.87;;;33.17;;
11568;SDS011;5840;46.894;15.542;2024-01-15T06:34:04;47.00;;;33.60;;
11568;SDS011;5840;46.894;15.542;2024-01-15T06:36:30;48.57;;;35.03;;
11568;SDS011;5840;46.894;15.542;2024-01-15T06:38:56;52.10;;;37.03;;
11568;SDS011;5840;46.894;15.542;2024-01-15T06:41:23;47.83;;;37.43;;
11568;SDS011;5840;46.894;15.542;2024-01-15T06:43:50;52.33;;;35.90;;
11568;SDS011;5840;46.894;15.542;2024-01-15T06:46:20;54.77;;;37.63;;
11568;SDS011;5840;46.894;15.542;2024-01-15T06:56:14;48.27;;;36.37;;
11568;SDS011;5840;46.894;15.542;2024-01-15T06:58:41;46.83;;;35.67;;
11568;SDS011;5840;46.894;15.542;2024-01-15T07:01:07;47.47;;;35.80;;
11568;SDS011;5840;46.894;15.542;2024-01-15T07:03:33;52.17;;;36.87;;
11568;SDS011;5840;46.894;15.542;2024-01-15T07:05:59;48.57;;;35.53;;
11568;SDS011;5840;46.894;15.542;2024-01-15T07:08:26;45.47;;;34.63;;
11568;SDS011;5840;46.894;15.542;2024-01-15T07:10:52;47.20;;;34.00;;
11568;SDS011;5840;46.894;15.542;2024-01-15T07:13:19;50.07;;;35.23;;
11568;SDS011;5840;46.894;15.542;2024-01-15T07:20:49;44.67;;;32.63;;
11568;SDS011;5840;46.894;15.542;2024-01-15T07:23:15;43.17;;;32.93;;
11568;SDS011;5840;46.894;15.542;2024-01-15T07:25:42;47.47;;;35.33;;
11568;SDS011;5840;46.894;15.542;2024-01-15T07:28:08;48.23;;;34.83;;
11568;SDS011;5840;46.894;15.542;2024-01-15T07:30:35;45.90;;;34.37;;
11568;SDS011;5840;46.894;15.542;2024-01-15T07:33:03;48.37;;;35.60;;
11568;SDS011;5840;46.894;15.542;2024-01-15T07:35:30;50.60;;;35.17;;
11568;SDS011;5840;46.894;15.542;2024-01-15T07:37:58;48.63;;;34.93;;
11568;SDS011;5840;46.894;15.542;2024-01-15T07:47:48;42.43;;;30.47;;
11568;SDS011;5840;46.894;15.542;2024-01-15T07:50:14;39.17;;;29.27;;
11568;SDS011;5840;46.894;15.542;2024-01-15T07:52:40;36.93;;;28.60;;
11568;SDS011;5840;46.894;15.542;2024-01-15T07:55:07;37.07;;;28.27;;
11568;SDS011;5840;46.894;15.542;2024-01-15T07:57:33;36.60;;;28.50;;
11568;SDS011;5840;46.894;15.542;2024-01-15T08:00:00;37.27;;;29.73;;
11568;SDS011;5840;46.894;15.542;2024-01-15T08:02:29;40.40;;;31.87;;
11568;SDS011;5840;46.894;15.542;2024-01-15T08:04:56;40.97;;;30.80;;
11568;SDS011;5840;46.894;15.542;2024-01-15T08:12:27;38.57;;;30.30;;
11568;SDS011;5840;46.894;15.542;2024-01-15T08:14:53;38.23;;;29.90;;
11568;SDS011;5840;46.894;15.542;2024-01-15T08:17:19;35.63;;;29.17;;
11568;SDS011;5840;46.894;15.542;2024-01-15T08:19:46;33.13;;;27.30;;
11568;SDS011;5840;46.894;15.542;2024-01-15T08:22:12;34.50;;;28.07;;
11568;SDS011;5840;46.894;15.542;2024-01-15T08:24:38;30.40;;;25.63;;
11568;SDS011;5840;46.894;15.542;2024-01-15T08:27:04;27.50;;;23.47;;
11568;SDS011;5840;46.894;15.542;2024-01-15T08:29:31;26.93;;;22.57;;
11568;SDS011;5840;46.894;15.542;2024-01-15T08:39:24;17.80;;;15.90;;
11568;SDS011;5840;46.894;15.542;2024-01-15T08:41:50;17.53;;;15.73;;
11568;SDS011;5840;46.894;15.542;2024-01-15T08:44:16;16.40;;;14.70;;
11568;SDS011;5840;46.894;15.542;2024-01-15T08:46:43;17.43;;;15.53;;
11568;SDS011;5840;46.894;15.542;2024-01-15T08:49:09;30.90;;;26.40;;
11568;SDS011;5840;46.894;15.542;2024-01-15T08:51:35;33.03;;;28.30;;
11568;SDS011;5840;46.894;15.542;2024-01-15T08:54:03;35.27;;;30.17;;
11568;SDS011;5840;46.894;15.542;2024-01-15T08:56:30;35.33;;;30.63;;
11568;SDS011;5840;46.894;15.542;2024-01-15T09:03:59;29.67;;;26.10;;
11568;SDS011;5840;46.894;15.542;2024-01-15T09:06:26;33.10;;;28.13;;
11568;SDS011;5840;46.894;15.542;2024-01-15T09:08:52;29.93;;;24.80;;
11568;SDS011;5840;46.894;15.542;2024-01-15T09:11:18;22.23;;;19.93;;
11568;SDS011;5840;46.894;15.542;2024-01-15T09:13:44;22.00;;;19.23;;
11568;SDS011;5840;46.894;15.542;2024-01-15T09:16:10;18.13;;;16.23;;
11568;SDS011;5840;46.894;15.542;2024-01-15T09:18:37;15.20;;;13.70;;
11568;SDS011;5840;46.894;15.542;2024-01-15T09:21:04;15.47;;;13.97;;
11568;SDS011;5840;46.894;15.542;2024-01-15T09:30:59;16.53;;;14.83;;
11568;SDS011;5840;46.894;15.542;2024-01-15T09:33:25;19.27;;;17.27;;
11568;SDS011;5840;46.894;15.542;2024-01-15T09:35:52;15.40;;;13.80;;
11568;SDS011;5840;46.894;15.542;2024-01-15T09:38:18;15.67;;;14.10;;
11568;SDS011;5840;46.894;15.542;2024-01-15T09:40:45;23.60;;;21.03;;
11568;SDS011;5840;46.894;15.542;2024-01-15T09:43:12;18.07;;;16.27;;
11568;SDS011;5840;46.894;15.542;2024-01-15T09:45:39;33.33;;;29.40;;
11568;SDS011;5840;46.894;15.542;2024-01-15T09:48:07;24.87;;;22.17;;
11568;SDS011;5840;46.894;15.542;2024-01-15T09:55:36;28.17;;;24.90;;
11568;SDS011;5840;46.894;15.542;2024-01-15T09:58:03;23.77;;;21.37;;
11568;SDS011;5840;46.894;15.542;2024-01-15T10:00:29;25.77;;;23.03;;
11568;SDS011;5840;46.894;15.542;2024-01-15T10:02:56;26.33;;;23.60;;
11568;SDS011;5840;46.894;15.542;2024-01-15T10:05:22;24.53;;;22.13;;
11568;SDS011;5840;46.894;15.542;2024-01-15T10:07:49;25.37;;;22.40;;
11568;SDS011;5840;46.894;15.542;2024-01-15T10:10:16;24.97;;;22.30;;
11568;SDS011;5840;46.894;15.542;2024-01-15T10:12:43;28.30;;;25.27;;
11568;SDS011;5840;46.894;15.542;2024-01-15T10:22:41;28.43;;;25.43;;
11568;SDS011;5840;46.894;15.542;2024-01-15T10:25:09;31.33;;;27.93;;
11568;SDS011;5840;46.894;15.542;2024-01-15T10:27:36;33.87;;;29.93;;
11568;SDS011;5840;46.894;15.542;2024-01-15T10:30:02;30.33;;;27.07;;
11568;SDS011;5840;46.894;15.542;2024-01-15T10:32:31;32.10;;;27.10;;
11568;SDS011;5840;46.894;15.542;2024-01-15T10:34:57;27.60;;;24.57;;
11568;SDS011;5840;46.894;15.542;2024-01-15T10:37:24;29.30;;;26.10;;
11568;SDS011;5840;46.894;15.542;2024-01-15T10:39:51;29.57;;;26.47;;
11568;SDS011;5840;46.894;15.542;2024-01-15T10:47:16;21.83;;;19.63;;
11568;SDS011;5840;46.894;15.542;2024-01-15T10:49:44;19.90;;;17.90;;
11568;SDS011;5840;46.894;15.542;2024-01-15T10:52:11;16.97;;;15.27;;
11568;SDS011;5840;46.894;15.542;2024-01-15T10:54:37;24.57;;;22.07;;
11568;SDS011;5840;46.894;15.542;2024-01-15T10:57:05;16.73;;;14.93;;
11568;SDS011;5840;46.894;15.542;2024-01-15T10:59:31;13.10;;;11.73;;
11568;SDS011;5840;46.894;15.542;2024-01-15T11:01:58;11.17;;;10.07;;
11568;SDS011;5840;46.894;15.542;2024-01-15T11:04:26;12.57;;;11.33;;
11568;SDS011;5840;46.894;15.542;2024-01-15T11:17:00;14.47;;;12.97;;
11568;SDS011;5840;46.894;15.542;2024-01-15T11:19:34;14.43;;;13.00;;
11568;SDS011;5840;46.894;15.542;2024-01-15T11:22:02;14.07;;;12.77;;
11568;SDS011;5840;46.894;15.542;2024-01-15T11:24:33;16.23;;;14.50;;
11568;SDS011;5840;46.894;15.542;2024-01-15T11:27:00;16.37;;;14.73;;
11568;SDS011;5840;46.894;15.542;2024-01-15T11:29:30;18.50;;;16.60;;
11568;SDS011;5840;46.894;15.542;2024-01-15T11:32:00;15.97;;;14.47;;
11568;SDS011;5840;46.894;15.542;2024-01-15T11:39:52;18.00;;;15.73;;
11568;SDS011;5840;46.894;15.542;2024-01-15T11:42:19;17.83;;;16.17;;
11568;SDS011;5840;46.894;15.542;2024-01-15T11:44:46;17.00;;;15.30;;
11568;SDS011;5840;46.894;15.542;2024-01-15T11:47:12;18.50;;;16.47;;
11568;SDS011;5840;46.894;15.542;2024-01-15T11:49:46;17.57;;;15.77;;
11568;SDS011;5840;46.894;15.542;2024-01-15T11:52:25;17.40;;;15.70;;
11568;SDS011;5840;46.894;15.542;2024-01-15T11:54:59;17.23;;;15.50;;
11568;SDS011;5840;46.894;15.542;2024-01-15T11:57:31;18.43;;;16.63;;
11568;SDS011;5840;46.894;15.542;2024-01-15T12:05:23;17.70;;;15.83;;
11568;SDS011;5840;46.894;15.542;2024-01-15T12:07:49;16.27;;;14.67;;
11568;SDS011;5840;46.894;15.542;2024-01-15T12:10:16;17.43;;;15.67;;
11568;SDS011;5840;46.894;15.542;2024-01-15T12:12:47;18.07;;;16.27;;
11568;SDS011;5840;46.894;15.542;2024-01-15T12:15:22;17.40;;;15.67;;
11568;SDS011;5840;46.894;15.542;2024-01-15T12:17:50;16.10;;;14.50;;
11568;SDS011;5840;46.894;15.542;2024-01-15T12:20:17;16.67;;;14.97;;
11568;SDS011;5840;46.894;15.542;2024-01-15T12:25:22;15.23;;;13.73;;
11568;SDS011;5840;46.894;15.542;2024-01-15T12:27:49;15.50;;;13.90;;
11568;SDS011;5840;46.894;15.542;2024-01-15T12:30:17;16.30;;;14.70;;
11568;SDS011;5840;46.894;15.542;2024-01-15T12:32:43;16.37;;;14.63;;
11568;SDS011;5840;46.894;15.542;2024-01-15T12:35:11;15.03;;;13.53;;
11568;SDS011;5840;46.894;15.542;2024-01-15T12:37:37;16.37;;;14.67;;
11568;SDS011;5840;46.894;15.542;2024-01-15T12:40:06;15.57;;;13.97;;
11568;SDS011;5840;46.894;15.542;2024-01-15T12:42:35;14.53;;;13.07;;
11568;SDS011;5840;46.894;15.542;2024-01-15T12:50:06;14.30;;;12.90;;
11568;SDS011;5840;46.894;15.542;2024-01-15T12:52:33;13.30;;;12.07;;
11568;SDS011;5840;46.894;15.542;2024-01-15T12:54:59;14.00;;;12.63;;
11568;SDS011;5840;46.894;15.542;2024-01-15T12:57:25;14.17;;;12.77;;
11568;SDS011;5840;46.894;15.542;2024-01-15T12:59:54;13.93;;;12.57;;
11568;SDS011;5840;46.894;15.542;2024-01-15T13:02:20;15.40;;;14.00;;
11568;SDS011;5840;46.894;15.542;2024-01-15T13:04:46;14.80;;;13.30;;
11568;SDS011;5840;46.894;15.542;2024-01-15T13:07:13;13.97;;;12.57;;
11568;SDS011;5840;46.894;15.542;2024-01-15T13:14:43;15.13;;;13.60;;
11568;SDS011;5840;46.894;15.542;2024-01-15T13:17:10;15.07;;;13.67;;
11568;SDS011;5840;46.894;15.542;2024-01-15T13:19:36;15.20;;;13.73;;
11568;SDS011;5840;46.894;15.542;2024-01-15T13:22:04;14.50;;;13.10;;
11568;SDS011;5840;46.894;15.542;2024-01-15T13:24:32;15.03;;;13.53;;
11568;SDS011;5840;46.894;15.542;2024-01-15T13:26:58;15.57;;;13.97;;
11568;SDS011;5840;46.894;15.542;2024-01-15T13:29:25;15.40;;;13.90;;
11568;SDS011;5840;46.894;15.542;2024-01-15T13:31:52;16.17;;;14.57;;
11568;SDS011;5840;46.894;15.542;2024-01-15T13:39:21;15.07;;;13.63;;
11568;SDS011;5840;46.894;15.542;2024-01-15T13:41:47;15.07;;;13.67;;
11568;SDS011;5840;46.894;15.542;2024-01-15T13:44:14;16.17;;;14.57;;
11568;SDS011;5840;46.894;15.542;2024-01-15T13:46:40;16.27;;;14.67;;
11568;SDS011;5840;46.894;15.542;2024-01-15T13:49:07;16.63;;;14.90;;
11568;SDS011;5840;46.894;15.542;2024-01-15T13:51:34;17.57;;;15.77;;
11568;SDS011;5840;46.894;15.542;2024-01-15T13:54:01;18.50;;;16.50;;
11568;SDS011;5840;46.894;15.542;2024-01-15T13:56:30;17.93;;;16.13;;
11568;SDS011;5840;46.894;15.542;2024-01-15T14:04:00;17.77;;;16.07;;
11568;SDS011;5840;46.894;15.542;2024-01-15T14:06:26;19.23;;;17.23;;
11568;SDS011;5840;46.894;15.542;2024-01-15T14:08:53;18.17;;;16.37;;
11568;SDS011;5840;46.894;15.542;2024-01-15T14:11:19;16.50;;;14.90;;
11568;SDS011;5840;46.894;15.542;2024-01-15T14:13:45;17.77;;;15.97;;
11568;SDS011;5840;46.894;15.542;2024-01-15T14:16:12;17.30;;;15.60;;
11568;SDS011;5840;46.894;15.542;2024-01-15T14:18:39;17.73;;;15.97;;
11568;SDS011;5840;46.894;15.542;2024-01-15T14:21:06;18.13;;;16.20;;
11568;SDS011;5840;46.894;15.542;2024-01-15T14:30:56;23.17;;;20.83;;
11568;SDS011;5840;46.894;15.542;2024-01-15T14:33:25;21.07;;;18.97;;
11568;SDS011;5840;46.894;15.542;2024-01-15T14:35:51;20.40;;;18.43;;
11568;SDS011;5840;46.894;15.542;2024-01-15T14:38:17;17.43;;;15.73;;
11568;SDS011;5840;46.894;15.542;2024-01-15T14:40:44;18.17;;;16.27;;
11568;SDS011;5840;46.894;15.542;2024-01-15T14:43:10;18.90;;;16.87;;
11568;SDS011;5840;46.894;15.542;2024-01-15T14:45:36;18.27;;;16.47;;
11568;SDS011;5840;46.894;15.542;2024-01-15T14:48:03;17.63;;;15.73;;
11568;SDS011;5840;46.894;15.542;2024-01-15T14:55:33;17.37;;;15.63;;
11568;SDS011;5840;46.894;15.542;2024-01-15T14:57:59;18.23;;;16.43;;
11568;SDS011;5840;46.894;15.542;2024-01-15T15:00:26;18.10;;;16.33;;
11568;SDS011;5840;46.894;15.542;2024-01-15T15:02:52;18.57;;;16.77;;
11568;SDS011;5840;46.894;15.542;2024-01-15T15:05:18;17.80;;;16.00;;
11568;SDS011;5840;46.894;15.542;2024-01-15T15:07:45;18.37;;;16.57;;
11568;SDS011;5840;46.894;15.542;2024-01-15T15:10:11;17.77;;;15.87;;
11568;SDS011;5840;46.894;15.542;2024-01-15T15:12:38;18.00;;;15.20;;
11568;SDS011;5840;46.894;15.542;2024-01-15T15:22:33;17.53;;;15.73;;
11568;SDS011;5840;46.894;15.542;2024-01-15T15:24:59;17.50;;;15.80;;
11568;SDS011;5840;46.894;15.542;2024-01-15T15:27:25;18.03;;;16.17;;
11568;SDS011;5840;46.894;15.542;2024-01-15T15:29:52;17.33;;;15.57;;
11568;SDS011;5840;46.894;15.542;2024-01-15T15:32:19;15.90;;;14.30;;
11568;SDS011;5840;46.894;15.542;2024-01-15T15:34:45;16.70;;;15.00;;
11568;SDS011;5840;46.894;15.542;2024-01-15T15:37:11;15.43;;;13.87;;
11568;SDS011;5840;46.894;15.542;2024-01-15T15:39:41;17.50;;;15.80;;
11568;SDS011;5840;46.894;15.542;2024-01-15T15:49:31;16.77;;;14.97;;
11568;SDS011;5840;46.894;15.542;2024-01-15T15:51:57;16.47;;;14.97;;
11568;SDS011;5840;46.894;15.542;2024-01-15T15:54:23;16.30;;;14.53;;
11568;SDS011;5840;46.894;15.542;2024-01-15T15:56:49;17.07;;;15.40;;
11568;SDS011;5840;46.894;15.542;2024-01-15T15:59:17;17.77;;;16.03;;
11568;SDS011;5840;46.894;15.542;2024-01-15T16:01:43;17.50;;;15.63;;
11568;SDS011;5840;46.894;15.542;2024-01-15T16:04:10;19.33;;;17.33;;
11568;SDS011;5840;46.894;15.542;2024-01-15T16:06:37;20.07;;;17.73;;
11568;SDS011;5840;46.894;15.542;2024-01-15T16:16:32;18.60;;;16.67;;
11568;SDS011;5840;46.894;15.542;2024-01-15T16:18:58;18.47;;;16.07;;
11568;SDS011;5840;46.894;15.542;2024-01-15T16:21:24;18.50;;;16.63;;
11568;SDS011;5840;46.894;15.542;2024-01-15T16:23:51;19.00;;;17.10;;
11568;SDS011;5840;46.894;15.542;2024-01-15T16:26:18;18.43;;;16.63;;
11568;SDS011;5840;46.894;15.542;2024-01-15T16:28:44;19.93;;;17.47;;
11568;SDS011;5840;46.894;15.542;2024-01-15T16:31:11;20.10;;;18.00;;
11568;SDS011;5840;46.894;15.542;2024-01-15T16:33:38;21.93;;;19.70;;
11568;SDS011;5840;46.894;15.542;2024-01-15T16:43:28;21.23;;;19.03;;
11568;SDS011;5840;46.894;15.542;2024-01-15T16:45:54;21.27;;;19.03;;
11568;SDS011;5840;46.894;15.542;2024-01-15T16:48:21;21.93;;;19.60;;
11568;SDS011;5840;46.894;15.542;2024-01-15T16:50:47;22.97;;;20.67;;
11568;SDS011;5840;46.894;15.542;2024-01-15T16:53:13;21.07;;;18.80;;
11568;SDS011;5840;46.894;15.542;2024-01-15T16:55:39;23.00;;;19.87;;
11568;SDS011;5840;46.894;15.542;2024-01-15T16:58:06;22.63;;;20.23;;
11568;SDS011;5840;46.894;15.542;2024-01-15T17:00:33;22.87;;;20.00;;
11568;SDS011;5840;46.894;15.542;2024-01-15T17:08:02;23.43;;;21.03;;
11568;SDS011;5840;46.894;15.542;2024-01-15T17:10:28;27.17;;;22.97;;
11568;SDS011;5840;46.894;15.542;2024-01-15T17:12:56;25.57;;;22.57;;
11568;SDS011;5840;46.894;15.542;2024-01-15T17:15:23;25.23;;;22.53;;
11568;SDS011;5840;46.894;15.542;2024-01-15T17:17:49;26.03;;;23.13;;
11568;SDS011;5840;46.894;15.542;2024-01-15T17:20:15;24.50;;;21.90;;
11568;SDS011;5840;46.894;15.542;2024-01-15T17:22:41;24.20;;;21.27;;
11568;SDS011;5840;46.894;15.542;2024-01-15T17:25:08;22.50;;;20.20;;
11568;SDS011;5840;46.894;15.542;2024-01-15T17:32:38;24.53;;;21.83;;
11568;SDS011;5840;46.894;15.542;2024-01-15T17:35:04;27.03;;;21.40;;
11568;SDS011;5840;46.894;15.542;2024-01-15T17:37:31;24.63;;;21.67;;
11568;SDS011;5840;46.894;15.542;2024-01-15T17:39:57;24.97;;;21.87;;
11568;SDS011;5840;46.894;15.542;2024-01-15T17:42:23;24.77;;;22.27;;
11568;SDS011;5840;46.894;15.542;2024-01-15T17:44:50;25.40;;;22.73;;
11568;SDS011;5840;46.894;15.542;2024-01-15T17:47:16;27.23;;;23.30;;
11568;SDS011;5840;46.894;15.542;2024-01-15T17:49:43;29.03;;;24.80;;
11568;SDS011;5840;46.894;15.542;2024-01-15T17:59:34;29.23;;;26.13;;
11568;SDS011;5840;46.894;15.542;2024-01-15T18:02:01;29.30;;;25.97;;
11568;SDS011;5840;46.894;15.542;2024-01-15T18:04:27;29.30;;;25.87;;
11568;SDS011;5840;46.894;15.542;2024-01-15T18:06:53;30.50;;;27.03;;
11568;SDS011;5840;46.894;15.542;2024-01-15T18:09:21;33.80;;;27.53;;
11568;SDS011;5840;46.894;15.542;2024-01-15T18:11:47;30.60;;;27.03;;
11568;SDS011;5840;46.894;15.542;2024-01-15T18:14:14;31.80;;;27.90;;
11568;SDS011;5840;46.894;15.542;2024-01-15T18:16:42;32.57;;;28.07;;
11568;SDS011;5840;46.894;15.542;2024-01-15T18:24:16;33.77;;;29.03;;
11568;SDS011;5840;46.894;15.542;2024-01-15T18:26:42;33.47;;;29.03;;
11568;SDS011;5840;46.894;15.542;2024-01-15T18:29:08;32.40;;;28.93;;
11568;SDS011;5840;46.894;15.542;2024-01-15T18:31:35;34.10;;;29.23;;
11568;SDS011;5840;46.894;15.542;2024-01-15T18:34:01;34.73;;;29.03;;
11568;SDS011;5840;46.894;15.542;2024-01-15T18:36:27;35.53;;;29.13;;
11568;SDS011;5840;46.894;15.542;2024-01-15T18:38:53;34.60;;;30.37;;
11568;SDS011;5840;46.894;15.542;2024-01-15T18:41:21;34.80;;;30.00;;
11568;SDS011;5840;46.894;15.542;2024-01-15T18:51:19;36.47;;;30.83;;
11568;SDS011;5840;46.894;15.542;2024-01-15T18:53:45;37.13;;;31.13;;